Latest Weather Observations for Centre Island

IDD60801

Issued at 6:01 pm CST Saturday 13 February 2016 (issued every 30 minutes, with the page automatically refreshed every 10 minutes)

About weather observations | Map of weather stations | Latest weather observations for NT | Other Formats
Station Details ID: 014703 Name: CENTRE ISLAND Lat: -15.74 Lon: 136.82 Height: 12.2 m
Data from the previous 72 hours. | See also: Recent months at Centre Island
Date/Time
CST
Temp
°C
App
Temp
°C
Dew
Point
Rel
Hum
%
Delta-T
°C
Wind Press
QNH
hPa
Press
MSL
hPa
Rain
since 9 am
mm
Dir
 
Spd
km/h
Gust
km/h
Spd
kts
Gust
kts
13/06:00pm 33.5 36.4 24.4 59 6.4 N 17 24 9 13 1005.7 1005.6 0.0
13/05:30pm 34.2 36.8 23.9 55 7.2 NNW 17 22 9 12 1005.5 1005.4 0.0
13/05:00pm 34.8 37.7 24.4 54 7.3 N 17 22 9 12 1005.1 1005.0 0.0
13/04:30pm 34.4 36.8 24.6 56 6.9 NNE 20 26 11 14 1005.1 1005.0 0.0
13/04:00pm 34.7 36.9 24.3 54 7.3 NNE 20 26 11 14 1005.1 1005.0 0.0
13/03:30pm 35.1 37.9 25.0 56 7.2 NNE 19 26 10 14 1005.6 1005.5 0.0
13/03:00pm 35.7 39.1 25.2 54 7.5 NNE 17 20 9 11 1005.8 1005.7 0.0
13/02:30pm 35.5 39.2 25.1 55 7.4 NE 15 20 8 11 1006.1 1006.0 0.0
13/02:00pm 35.3 38.1 23.0 49 8.5 NE 13 17 7 9 1006.2 1006.1 0.0
13/01:30pm 34.5 36.9 20.8 44 9.2 SE 9 11 5 6 1006.5 1006.4 0.0
13/01:00pm 35.5 38.6 21.4 44 9.6 SSW 7 11 4 6 1006.8 1006.7 0.0
13/12:30pm 33.4 37.2 23.4 55 7.0 S 9 11 5 6 1007.4 1007.3 0.0
13/12:00pm 33.2 37.6 23.8 57 6.6 SSE 7 11 4 6 1007.9 1007.8 0.0
13/11:30am 32.6 37.0 24.4 62 5.8 SSE 9 13 5 7 1008.4 1008.3 0.0
13/11:00am 32.0 36.9 25.3 67 4.7 SSW 9 13 5 7 1008.7 1008.6 0.0
13/10:30am 32.2 37.9 26.5 72 4.1 WSW 9 13 5 7 1008.9 1008.8 0.0
13/10:00am 31.5 36.6 25.6 71 4.2 SW 9 13 5 7 1009.1 1009.0 0.0
13/09:30am 31.0 35.7 25.6 73 3.8 SW 11 13 6 7 1009.3 1009.2 0.0
13/09:00am 31.0 35.5 25.8 74 3.7 SW 13 17 7 9 1009.4 1009.3 0.0
13/08:30am 30.5 35.2 25.6 75 3.5 SW 11 13 6 7 1009.1 1009.0 0.0
13/08:00am 30.2 35.5 25.9 78 3.1 SW 9 13 5 7 1008.7 1008.6 0.0
13/07:30am 29.5 34.4 25.9 81 2.6 SSW 11 13 6 7 1008.2 1008.1 0.0
13/07:00am 28.6 33.2 26.0 86 1.8 SW 13 17 7 9 1007.7 1007.6 0.0
13/06:30am 28.4 33.7 26.4 89 1.4 SW 11 15 6 8 1007.4 1007.3 0.0
13/06:00am 28.4 33.0 26.0 87 1.7 WSW 13 17 7 9 1007.0 1006.9 0.0
13/05:30am 28.4 33.4 26.0 87 1.7 W 11 13 6 7 1006.7 1006.6 0.0
13/05:00am 28.0 33.5 26.2 90 1.3 W 9 11 5 6 1006.3 1006.2 0.0
13/04:30am 27.6 33.7 25.6 89 1.4 WNW 4 6 2 3 1006.2 1006.1 0.0
13/04:00am 27.6 32.7 25.0 86 1.8 NW 7 9 4 5 1006.4 1006.3 0.0
13/03:30am 27.7 33.1 25.5 88 1.6 NW 7 9 4 5 1006.3 1006.2 0.0
13/03:00am 28.0 33.7 25.6 87 1.7 NW 6 6 3 3 1006.4 1006.3 0.0
13/02:30am 28.2 33.8 25.8 87 1.7 NW 7 9 4 5 1006.4 1006.3 0.0
13/02:00am 28.2 33.2 25.4 85 2.0 NNW 9 11 5 6 1006.5 1006.4 0.0
13/01:30am 28.2 33.6 25.2 84 2.1 NW 6 9 3 5 1006.9 1006.8 0.0
13/01:00am 28.4 33.7 25.8 86 1.8 WNW 9 13 5 7 1007.4 1007.3 0.0
13/12:30am 28.9 34.1 25.1 80 2.7 NNW 7 9 4 5 1007.7 1007.6 0.0
13/12:00am 29.2 34.5 25.2 79 2.8 NNW 7 9 4 5 1008.1 1008.0 0.0
 
Date/Time
CST
Temp
°C
App
Temp
°C
Dew
Point
Rel
Hum
%
Delta-T
°C
Wind Press
QNH
hPa
Press
MSL
hPa
Rain
since 9 am
mm
Dir
 
Spd
km/h
Gust
km/h
Spd
kts
Gust
kts
12/11:30pm 29.9 34.1 25.4 77 3.2 NNE 13 17 7 9 1008.2 1008.1 0.0
12/11:00pm 30.0 34.0 25.1 75 3.4 NNE 13 17 7 9 1008.2 1008.1 0.0
12/10:30pm 30.2 33.4 25.0 73 3.7 NE 17 20 9 11 1008.0 1007.9 0.0
12/10:00pm 30.2 33.6 25.3 75 3.5 NNE 17 20 9 11 1008.1 1008.0 0.0
12/09:30pm 30.3 33.8 25.4 75 3.5 NNE 17 22 9 12 1008.0 1007.9 0.0
12/09:00pm 30.3 33.9 25.6 76 3.3 NNE 17 20 9 11 1007.9 1007.8 0.0
12/08:30pm 30.4 34.1 25.7 76 3.3 NNE 17 22 9 12 1007.4 1007.3 0.0
12/08:00pm 30.3 33.8 25.4 75 3.5 NNE 17 20 9 11 1006.9 1006.8 0.0
12/07:30pm 30.6 34.1 25.4 74 3.7 NNE 17 20 9 11 1006.6 1006.5 0.0
12/07:00pm 30.7 33.7 25.3 73 3.8 NNE 19 22 10 12 1006.4 1006.3 0.0
12/06:30pm 31.3 34.2 25.4 71 4.2 NNE 20 26 11 14 1006.3 1006.2 0.0
12/06:00pm 31.9 35.2 25.7 69 4.4 NNE 19 24 10 13 1006.2 1006.1 0.0
12/05:30pm 32.6 36.3 25.7 67 4.9 NNE 17 22 9 12 1006.0 1005.9 0.0
12/05:00pm 33.3 37.1 25.3 63 5.7 NE 15 22 8 12 1005.8 1005.7 0.0
12/04:30pm 34.0 37.9 24.3 57 6.8 E 11 13 6 7 1005.9 1005.8 0.0
12/04:00pm 34.0 37.2 23.7 55 7.2 E 13 17 7 9 1005.9 1005.8 0.0
12/03:30pm 34.4 37.4 24.6 56 6.9 E 17 20 9 11 1006.1 1006.0 0.0
12/03:00pm 34.4 37.2 24.9 57 6.7 ESE 19 24 10 13 1006.3 1006.2 0.0
12/02:30pm 34.2 37.6 26.1 62 5.8 ESE 20 24 11 13 1006.5 1006.4 0.0
12/02:00pm 34.4 37.5 26.3 62 5.8 ESE 22 26 12 14 1006.8 1006.7 0.0
12/01:30pm 34.0 36.5 25.9 62 5.8 ESE 24 28 13 15 1007.1 1007.0 0.0
12/01:00pm 33.7 35.8 26.5 66 5.2 ESE 28 30 15 16 1007.5 1007.4 0.0
12/12:30pm 33.9 36.3 26.9 67 5.1 SE 28 32 15 17 1007.7 1007.6 0.0
12/12:00pm 33.5 38.7 26.8 68 4.8 SE 13 17 7 9 1008.0 1007.9 0.0
12/11:30am 33.2 38.3 26.7 68 4.7 SSE 13 17 7 9 1008.3 1008.2 0.0
12/11:00am 32.1 37.4 25.9 70 4.4 SSE 9 15 5 8 1008.7 1008.6 0.0
12/10:30am 31.8 37.5 26.4 73 3.9 S 9 13 5 7 1008.9 1008.8 0.0
12/10:00am 31.6 37.3 26.4 74 3.7 S 9 11 5 6 1009.1 1009.0 0.0
12/09:30am 31.4 36.9 26.2 74 3.7 SSE 9 11 5 6 1009.2 1009.1 0.0
12/09:00am 31.2 36.9 26.5 76 3.4 SSE 9 13 5 7 1009.2 1009.1 0.0
12/08:30am 31.4 37.3 26.7 76 3.4 SSE 9 13 5 7 1009.0 1008.9 0.0
12/08:00am 30.9 36.4 26.2 76 3.4 E 9 13 5 7 1008.6 1008.5 0.0
12/07:30am 30.3 36.2 26.7 81 2.6 E 9 11 5 6 1008.4 1008.3 0.0
12/07:00am 29.5 34.5 26.5 84 2.1 SE 13 17 7 9 1008.3 1008.2 0.0
12/06:30am 29.0 33.5 26.4 86 1.9 SSE 15 17 8 9 1007.9 1007.8 0.0
12/06:00am 28.9 34.1 26.3 86 1.9 SSE 11 15 6 8 1007.6 1007.5 0.0
12/05:30am 28.8 33.8 26.0 85 2.0 SSE 11 15 6 8 1007.1 1007.0 0.0
12/05:00am 28.8 33.4 26.0 85 2.0 SSE 13 17 7 9 1006.9 1006.8 0.0
12/04:30am 29.0 33.4 26.2 85 2.0 SSE 15 19 8 10 1006.6 1006.5 0.0
12/04:00am 29.4 33.3 25.4 79 2.8 E 15 17 8 9 1006.5 1006.4 0.0
12/03:30am 29.4 32.8 25.2 78 3.0 ESE 17 19 9 10 1006.4 1006.3 0.0
12/03:00am 29.5 33.3 25.3 78 3.0 ESE 15 20 8 11 1006.3 1006.2 0.0
12/02:30am 29.5 33.0 25.5 79 2.8 E 17 20 9 11 1006.3 1006.2 0.0
12/02:00am 29.5 32.9 25.3 78 3.0 E 17 22 9 12 1006.7 1006.6 0.0
12/01:30am 29.5 32.7 25.0 77 3.2 E 17 20 9 11 1006.9 1006.8 0.0
12/01:00am 29.5 32.7 25.0 77 3.2 E 17 20 9 11 1007.3 1007.2 0.0
12/12:30am 29.6 33.5 25.4 78 3.0 E 15 19 8 10 1007.7 1007.6 0.0
12/12:00am 29.7 33.8 25.2 77 3.2 E 13 17 7 9 1007.9 1007.8 0.0
 
Date/Time
CST
Temp
°C
App
Temp
°C
Dew
Point
Rel
Hum
%
Delta-T
°C
Wind Press
QNH
hPa
Press
MSL
hPa
Rain
since 9 am
mm
Dir
 
Spd
km/h
Gust
km/h
Spd
kts
Gust
kts
11/11:30pm 29.6 33.6 25.1 77 3.2 ENE 13 17 7 9 1008.0 1007.9 0.0
11/11:00pm 29.8 32.7 25.1 76 3.3 ENE 19 24 10 13 1008.0 1007.9 0.0
11/10:30pm 30.0 33.3 25.7 78 3.1 ENE 19 24 10 13 1008.0 1007.9 0.0
11/10:00pm 30.1 33.7 25.6 77 3.2 E 17 22 9 12 1007.9 1007.8 0.0
11/09:30pm 30.1 32.9 25.2 75 3.5 E 20 24 11 13 1007.8 1007.7 0.0
11/09:00pm 30.3 32.8 25.4 75 3.5 E 22 28 12 15 1007.4 1007.3 0.0
11/08:30pm 30.3 33.0 25.1 73 3.7 E 20 26 11 14 1007.1 1007.0 0.0
11/08:00pm 30.3 33.0 25.1 73 3.7 ENE 20 24 11 13 1006.8 1006.7 0.0
11/07:30pm 30.4 33.4 25.5 75 3.5 E 20 24 11 13 1006.4 1006.3 0.0
11/07:00pm 30.6 32.3 24.7 71 4.1 E 24 28 13 15 1006.2 1006.1 0.0
11/06:30pm 30.8 33.0 24.9 71 4.2 E 22 26 12 14 1005.9 1005.8 0.0
11/06:00pm 31.0 32.7 24.1 66 4.8 E 22 30 12 16 1005.6 1005.5 0.0
11/05:30pm 31.6 34.4 25.0 68 4.7 ESE 19 20 10 11 1005.0 1004.9 0.0
11/05:00pm 31.2 33.4 24.3 66 4.8 SE 20 24 11 13 1004.5 1004.4 0.0
11/04:30pm 33.0 35.5 26.0 66 5.0 ESE 24 28 13 15 1004.3 1004.2 0.0
11/04:00pm 32.6 35.4 25.2 65 5.2 ESE 20 24 11 13 1004.4 1004.3 0.0
11/03:30pm 32.8 36.0 25.9 67 4.9 SE 20 24 11 13 1004.4 1004.3 0.0
11/03:00pm 31.9 33.5 25.2 67 4.7 SE 26 30 14 16 1004.5 1004.4 0.0
11/02:30pm 32.5 34.5 26.3 70 4.5 SE 28 33 15 18 1004.6 1004.5 0.0
11/02:00pm 30.9 29.2 23.8 66 4.9 SE 39 52 21 28 1005.0 1004.9 0.0
11/01:59pm 31.9 31.3 25.0 67 4.9 SE 37 50 20 27 1005.1 1005.0 0.0
11/01:30pm 33.3 35.8 25.3 63 5.7 ESE 22 28 12 15 1005.3 1005.2 0.0
11/01:00pm 33.2 36.0 24.9 61 5.9 ESE 19 22 10 12 1005.5 1005.4 0.0
11/12:30pm 32.6 35.0 24.6 62 5.6 ESE 20 24 11 13 1006.0 1005.9 0.0
11/12:00pm 32.4 35.4 25.5 67 4.9 SE 20 24 11 13 1006.5 1006.4 0.0
11/11:30am 31.6 34.5 24.5 66 5.0 SE 17 20 9 11 1006.9 1006.8 0.0
11/11:00am 30.9 34.0 24.8 70 4.3 SE 17 20 9 11 1007.3 1007.2 0.0
11/10:30am 31.3 35.5 25.9 73 3.9 SE 15 17 8 9 1007.4 1007.3 0.0
11/10:00am 30.2 34.1 24.8 73 3.8 SSE 13 17 7 9 1007.6 1007.5 0.0
11/09:30am 29.7 33.9 24.8 75 3.4 SSW 11 13 6 7 1007.5 1007.4 0.0
11/09:00am 28.7 32.9 24.7 79 2.8 WSW 11 13 6 7 1007.5 1007.4 26.8
11/08:30am 28.6 33.0 24.4 78 2.9 S 9 11 5 6 1007.2 1007.1 26.8
11/08:00am 28.4 33.5 25.0 82 2.4 SSW 7 11 4 6 1006.8 1006.7 26.8
11/07:30am 27.1 31.0 24.9 88 1.5 SW 13 17 7 9 1006.7 1006.6 26.8
11/07:00am 27.2 30.1 24.5 85 1.9 S 17 20 9 11 1006.6 1006.5 26.8
11/06:30am 27.4 30.3 24.5 84 2.0 SE 17 20 9 11 1006.4 1006.3 26.8
11/06:00am 27.2 30.3 24.8 87 1.7 SE 17 20 9 11 1006.1 1006.0 26.8
11/05:30am 26.8 30.3 24.8 89 1.4 SE 15 17 8 9 1005.9 1005.8 26.8
11/05:00am 26.5 28.7 24.9 91 1.1 ESE 22 26 12 14 1005.6 1005.5 26.8
11/04:30am 26.1 28.8 25.1 94 0.7 E 20 24 11 13 1005.5 1005.4 26.8
11/04:00am 25.5 29.9 25.0 97 0.3 NNE 11 13 6 7 1004.8 1004.7 26.8
11/03:30am 25.1 30.6 24.6 97 0.3 N 4 9 2 5 1005.1 1005.0 26.8
11/03:00am 24.9 29.8 24.4 97 0.3 NNW 6 6 3 3 1006.0 1005.9 25.4
11/02:30am 24.8 29.6 24.5 98 0.2 SW 7 13 4 7 1006.4 1006.3 23.4
11/02:00am 24.8 27.1 24.5 98 0.2 SW 20 28 11 15 1006.8 1006.7 21.2
11/01:30am 25.2 25.9 24.9 98 0.2 WSW 30 37 16 20 1007.1 1007.0 16.8
11/01:00am 25.2 24.1 24.7 97 0.3 W 39 48 21 26 1007.5 1007.4 6.0
11/12:31am 25.7 23.3 23.9 90 1.2 WSW 43 61 23 33 1006.8 1006.7 0.0
11/12:30am 25.6 23.0 23.8 90 1.2 WSW 44 61 24 33 1006.8 1006.7 0.0
11/12:26am 25.7 23.3 23.9 90 1.2 WSW 43 61 23 33 1006.7 1006.6 0.0
11/12:04am 28.0 30.6 22.0 70 4.0 SSE 11 43 6 23 1007.1 1007.0 0.0
11/12:00am 30.1 35.2 24.9 73 3.7 ESE 7 13 4 7 1006.8 1006.7 0.0
 
Date/Time
CST
Temp
°C
App
Temp
°C
Dew
Point
Rel
Hum
%
Delta-T
°C
Wind Press
QNH
hPa
Press
MSL
hPa
Rain
since 9 am
mm
Dir
 
Spd
km/h
Gust
km/h
Spd
kts
Gust
kts
10/11:30pm 30.2 34.9 25.0 73 3.7 ESE 9 11 5 6 1007.1 1007.0 0.0
10/11:00pm 30.2 34.4 24.8 73 3.8 ENE 11 15 6 8 1007.2 1007.1 0.0
10/10:30pm 30.1 35.1 25.4 76 3.3 ENE 9 13 5 7 1007.1 1007.0 0.0
10/10:00pm 30.1 34.6 25.2 75 3.5 ENE 11 15 6 8 1006.8 1006.7 0.0
10/09:30pm 30.3 33.9 25.6 76 3.3 ENE 17 20 9 11 1006.3 1006.2 0.0
10/09:00pm 30.3 33.2 25.4 75 3.5 E 20 28 11 15 1006.2 1006.1 0.0
10/08:30pm 30.3 32.3 25.8 77 3.2 E 26 33 14 18 1005.9 1005.8 0.0
10/08:00pm 30.6 32.1 26.1 77 3.2 E 30 33 16 18 1005.9 1005.8 0.0
10/07:30pm 30.6 33.3 25.7 75 3.5 E 22 28 12 15 1005.9 1005.8 0.0
10/07:00pm 30.9 33.7 25.3 72 4.0 E 20 26 11 14 1005.0 1004.9 0.0
10/06:30pm 31.2 33.9 25.1 70 4.3 NE 20 26 11 14 1004.5 1004.4 0.0

Other Formats:

Comma delimited format used in spreadsheet applications
http://www.bom.gov.au/fwo/IDD60801/IDD60801.94248.axf

JavaScript Object Notation format (JSON) in row-major order
http://www.bom.gov.au/fwo/IDD60801/IDD60801.94248.json